Time;durP1;ratioP1;P1;durP2;ratioP2;P2;SDS_P1;SDS_P2;PMS_P1;PMS_P2;Temp;Humidity;BMP_temperature;BMP_pressure;BME280_temperature;BME280_humidity;BME280_pressure;Samples;Min_cycle;Max_cycle;Signal;HPM_P1;HPM_P2
2023/03/09 00:06:53;;;;;;;48.40;26.10;;;;;;;4.57;86.93;96347.39;439109;1259;106987;-40
2023/03/09 00:17:00;;;;;;;33.80;21.30;;;;;;;4.55;87.02;96337.39;438570;1266;99218;-41
2023/03/09 00:27:08;;;;;;;38.20;23.30;;;;;;;4.55;86.90;96336.70;436831;1256;111954;-40
2023/03/09 00:37:15;;;;;;;39.40;24.60;;;;;;;4.61;87.17;96327.74;435129;1257;107107;-41
2023/03/09 00:47:22;;;;;;;32.10;20.80;;;;;;;4.77;87.48;96331.09;436512;1256;98952;-39
2023/03/09 00:57:29;;;;;;;38.80;25.30;;;;;;;4.93;87.50;96324.09;436283;1257;107906;-39
2023/03/09 01:07:36;;;;;;;52.40;32.00;;;;;;;4.74;87.16;96315.61;437971;1253;98809;-40
2023/03/09 01:27:49;;;;;;;47.10;31.40;;;;;;;4.45;87.30;96310.31;439248;1254;107203;-40
2023/03/09 01:37:56;;;;;;;50.60;31.10;;;;;;;4.44;87.23;96307.95;438982;1257;99230;-39
2023/03/09 01:48:04;;;;;;;47.50;30.40;;;;;;;4.47;87.52;96316.61;438865;1257;108661;-39
2023/03/09 01:58:16;;;;;;;51.00;33.10;;;;;;;4.69;87.88;96310.44;438957;1254;98056;-40
2023/03/09 02:08:24;;;;;;;54.50;35.30;;;;;;;4.83;87.86;96310.72;438842;1256;110878;-41
2023/03/09 02:18:32;;;;;;;66.60;39.20;;;;;;;4.80;87.96;96315.25;439315;1256;107164;-39
2023/03/09 02:28:39;;;;;;;68.60;40.30;;;;;;;4.73;87.89;96299.58;438260;1249;98082;-43
2023/03/09 02:38:46;;;;;;;54.90;35.70;;;;;;;4.66;87.86;96293.34;437809;1254;107534;-41
2023/03/09 02:48:53;;;;;;;46.20;31.30;;;;;;;4.74;88.06;96289.74;436630;1253;99214;-41
2023/03/09 03:09:08;;;;;;;67.40;33.60;;;;;;;4.96;88.22;96280.18;437893;1254;108122;-41
2023/03/09 03:19:15;;;;;;;42.60;30.80;;;;;;;4.91;87.85;96274.06;436861;1254;97986;-40
2023/03/09 03:29:22;;;;;;;58.90;37.20;;;;;;;4.79;88.03;96271.05;435201;1256;108444;-40
2023/03/09 03:39:30;;;;;;;63.00;38.60;;;;;;;4.67;88.29;96268.52;434880;1257;420174;-39
2023/03/09 03:49:37;;;;;;;53.50;37.40;;;;;;;4.57;88.31;96270.40;435129;1256;111753;-41
2023/03/09 03:59:44;;;;;;;68.20;42.60;;;;;;;4.60;88.42;96272.24;435211;1253;109501;-41
2023/03/09 04:09:51;;;;;;;64.20;42.70;;;;;;;4.66;88.59;96276.32;435138;1256;99305;-39
2023/03/09 04:19:58;;;;;;;61.70;39.10;;;;;;;4.77;88.76;96281.61;435048;1256;108458;-41
2023/03/09 04:30:06;;;;;;;57.50;37.40;;;;;;;4.83;88.66;96280.82;435171;1252;98577;-41
2023/03/09 04:40:15;;;;;;;67.50;39.90;;;;;;;4.73;88.49;96270.95;435250;1257;110290;-40
2023/03/09 04:50:23;;;;;;;58.30;34.70;;;;;;;4.50;88.45;96263.21;436385;1256;108488;-39
2023/03/09 05:00:30;;;;;;;45.00;29.20;;;;;;;4.33;88.50;96262.34;435115;1256;98831;-40
2023/03/09 05:20:44;;;;;;;27.10;17.20;;;;;;;4.10;88.65;96247.25;435141;1253;99245;-40
2023/03/09 05:30:51;;;;;;;27.20;18.10;;;;;;;3.96;88.98;96249.87;435125;1256;112052;-39
2023/03/09 05:40:58;;;;;;;35.50;20.90;;;;;;;3.85;89.19;96237.31;435146;1256;107889;-40
2023/03/09 06:01:17;;;;;;;31.60;22.20;;;;;;;3.83;89.54;96229.98;435350;1256;107756;-41
2023/03/09 06:11:24;;;;;;;46.30;27.50;;;;;;;3.89;89.47;96236.56;435260;1253;98476;-40
2023/03/09 06:21:31;;;;;;;46.90;26.20;;;;;;;3.89;89.55;96227.79;435235;1253;113293;-40
2023/03/09 06:31:38;;;;;;;40.40;26.60;;;;;;;3.87;89.74;96216.27;435072;1256;108208;-39
2023/03/09 06:41:47;;;;;;;45.70;28.40;;;;;;;3.83;90.11;96199.49;435248;1256;99262;-40
2023/03/09 06:51:54;;;;;;;49.60;29.30;;;;;;;3.80;90.24;96205.79;437560;1256;106815;-40
2023/03/09 07:02:02;;;;;;;46.20;29.00;;;;;;;3.80;90.46;96209.97;435493;1253;99253;-39
2023/03/09 07:12:08;;;;;;;51.20;31.50;;;;;;;3.76;90.67;96202.95;435122;1256;111499;-40
2023/03/09 07:22:16;;;;;;;47.90;29.70;;;;;;;3.62;90.70;96207.00;435216;1256;107584;-39
2023/03/09 07:32:23;;;;;;;50.10;28.80;;;;;;;3.52;90.54;96208.86;435282;1256;99234;-40
2023/03/09 07:52:43;;;;;;;31.80;18.30;;;;;;;3.22;91.60;96215.29;435107;1253;98023;-39
2023/03/09 08:12:58;;;;;;;24.20;16.10;;;;;;;2.75;91.78;96228.41;435151;1256;107761;-41
2023/03/09 08:23:06;;;;;;;18.30;14.20;;;;;;;2.55;91.75;96232.91;435268;1252;99221;-40
2023/03/09 08:33:16;;;;;;;17.50;11.70;;;;;;;2.41;91.83;96243.23;435160;1254;108187;-41
2023/03/09 08:43:23;;;;;;;14.80;10.60;;;;;;;2.32;91.81;96246.61;435094;1253;99320;-40
2023/03/09 09:13:46;;;;;;;13.70;8.50;;;;;;;2.06;92.15;96273.16;435235;1256;98393;-41
2023/03/09 09:23:54;;;;;;;10.70;7.20;;;;;;;2.04;92.09;96282.88;435253;1252;108044;-42
2023/03/09 09:34:01;;;;;;;9.60;6.50;;;;;;;2.16;92.16;96284.64;435095;1253;98916;-40
2023/03/09 09:44:11;;;;;;;13.40;8.60;;;;;;;2.13;92.37;96289.99;435285;1253;112987;-40
2023/03/09 09:54:16;;;;;;;;;;;;;;;2.15;92.61;96291.55;435193;1256;109953;-40
2023/03/09 10:04:21;;;;;;;7.60;5.40;;;;;;;2.18;92.59;96298.16;435299;1252;99237;-40
2023/03/09 10:14:27;;;;;;;12.00;7.80;;;;;;;2.20;92.82;96309.14;435335;1253;110649;-40
2023/03/09 10:24:37;;;;;;;10.20;7.60;;;;;;;2.39;92.70;96320.08;435311;1252;99326;-41
2023/03/09 10:34:43;;;;;;;9.20;7.30;;;;;;;2.55;92.63;96335.63;435183;1253;112432;-40
2023/03/09 10:44:51;;;;;;;9.80;6.40;;;;;;;2.42;92.60;96360.26;435233;1253;107976;-40
2023/03/09 10:54:58;;;;;;;12.50;7.90;;;;;;;2.43;92.49;96372.00;435197;1253;97967;-40
2023/03/09 11:05:19;;;;;;;11.00;7.10;;;;;;;2.57;92.36;96385.07;435056;1256;108906;-41
2023/03/09 11:15:25;;;;;;;11.00;7.70;;;;;;;2.72;92.38;96400.08;435301;1253;98580;-39
2023/03/09 11:25:35;;;;;;;22.40;13.60;;;;;;;2.99;92.46;96404.13;435205;1256;111577;-40
2023/03/09 11:35:43;;;;;;;17.00;10.00;;;;;;;3.13;92.20;96417.70;435170;1253;107391;-41
2023/03/09 11:45:52;;;;;;;11.50;8.40;;;;;;;3.22;92.02;96433.98;435177;1253;99341;-41
2023/03/09 11:56:00;;;;;;;8.90;7.60;;;;;;;3.31;92.09;96469.28;435184;1253;107535;-39
2023/03/09 12:06:18;;;;;;;9.70;6.20;;;;;;;3.42;91.93;96487.02;435153;1253;98792;-41
2023/03/09 12:16:30;;;;;;;14.70;10.40;;;;;;;3.40;91.87;96511.17;435195;1256;111896;-40
2023/03/09 12:26:38;;;;;;;18.00;11.40;;;;;;;3.45;92.05;96547.04;436408;1253;107738;-41
2023/03/09 12:36:45;;;;;;;12.70;9.00;;;;;;;3.46;91.89;96566.13;435160;1256;98813;-39
2023/03/09 12:46:51;;;;;;;11.50;8.80;;;;;;;3.47;91.66;96586.44;435112;1256;108360;-39
2023/03/09 12:57:10;;;;;;;13.20;11.10;;;;;;;3.46;91.75;96614.52;435048;1252;99241;-40
2023/03/09 13:07:19;;;;;;;14.90;11.60;;;;;;;3.41;91.78;96647.04;435154;1256;111158;-40
2023/03/09 13:17:44;;;;;;;19.50;11.80;;;;;;;3.42;91.87;96677.31;434969;1256;107227;-40
2023/03/09 13:27:52;;;;;;;17.20;11.20;;;;;;;3.32;91.79;96705.39;435039;1253;99229;-40
2023/03/09 13:48:23;;;;;;;12.40;10.40;;;;;;;3.27;91.93;96757.56;435157;1253;99234;-40
2023/03/09 14:08:44;;;;;;;13.70;10.40;;;;;;;3.46;91.96;96781.73;436814;1253;107144;-39
2023/03/09 14:18:54;;;;;;;16.20;10.20;;;;;;;3.51;92.02;96801.27;435864;1256;99298;-39
2023/03/09 14:29:00;;;;;;;29.00;18.90;;;;;;;3.36;91.90;96823.27;437557;1256;107209;-39
2023/03/09 14:39:21;;;;;;;22.60;14.60;;;;;;;3.09;92.13;96836.92;435213;1256;99210;-40
2023/03/09 14:49:28;;;;;;;32.10;18.80;;;;;;;2.97;92.04;96847.35;435336;1256;110175;-40
2023/03/09 14:59:36;;;;;;;24.20;16.90;;;;;;;2.91;91.93;96859.73;435109;1256;109295;-39
2023/03/09 15:19:49;;;;;;;18.40;13.30;;;;;;;2.90;91.91;96887.86;435105;1254;108920;-40
2023/03/09 15:29:56;;;;;;;23.80;17.40;;;;;;;2.86;91.96;96892.63;435226;1256;99250;-40
2023/03/09 15:40:04;;;;;;;35.20;23.20;;;;;;;2.88;92.16;96907.38;434874;1254;396252;-39
2023/03/09 15:50:12;;;;;;;43.60;23.90;;;;;;;2.85;92.07;96921.67;435183;1254;107320;-39
2023/03/09 16:00:20;;;;;;;19.70;14.40;;;;;;;2.85;91.95;96926.61;435290;1256;98844;-40
2023/03/09 16:10:27;;;;;;;15.90;11.00;;;;;;;2.87;91.90;96933.83;436018;1253;108704;-39
2023/03/09 16:20:34;;;;;;;15.80;10.80;;;;;;;2.84;91.89;96941.52;435047;1253;98811;-40
2023/03/09 16:30:41;;;;;;;25.30;14.40;;;;;;;2.80;91.77;96957.79;435175;1253;110140;-40
2023/03/09 16:40:48;;;;;;;32.20;18.10;;;;;;;2.64;91.60;96965.52;435088;1256;110601;-40
2023/03/09 16:50:54;;;;;;;41.20;20.50;;;;;;;2.46;91.64;96993.52;435098;1253;99115;-41
2023/03/09 17:01:02;;;;;;;40.00;24.30;;;;;;;2.42;91.92;97005.05;435224;1256;107890;-40
2023/03/09 17:11:09;;;;;;;54.30;30.20;;;;;;;2.30;91.67;97027.80;435150;1256;99224;-40
2023/03/09 17:21:20;;;;;;;54.30;32.80;;;;;;;2.25;91.67;97047.73;435119;1253;110671;-39
2023/03/09 17:31:27;;;;;;;69.60;35.40;;;;;;;2.31;91.57;97046.48;435146;1256;107525;-41
2023/03/09 17:41:34;;;;;;;197.80;102.00;;;;;;;2.41;91.64;97037.05;435274;1254;99346;-39
2023/03/09 17:51:42;;;;;;;128.40;65.90;;;;;;;2.38;91.38;97038.36;435186;1257;107506;-40
2023/03/09 18:01:49;;;;;;;118.10;64.10;;;;;;;2.37;91.68;97059.99;435197;1256;98042;-39
2023/03/09 18:11:57;;;;;;;107.60;59.10;;;;;;;2.29;91.45;97054.81;435222;1265;111793;-39
2023/03/09 18:32:09;;;;;;;82.90;49.10;;;;;;;2.03;91.21;97053.33;435200;1256;99199;-41
2023/03/09 18:42:17;;;;;;;73.60;44.40;;;;;;;2.01;91.15;97057.08;435156;1256;113068;-41
2023/03/09 18:52:25;;;;;;;104.00;53.00;;;;;;;2.04;91.22;97059.98;434966;1254;108246;-39
2023/03/09 19:02:32;;;;;;;89.70;52.20;;;;;;;2.03;91.23;97034.75;435106;1257;99212;-40
2023/03/09 19:12:40;;;;;;;125.30;65.00;;;;;;;2.22;91.66;97040.27;435241;1256;107602;-41
2023/03/09 19:22:47;;;;;;;154.40;78.40;;;;;;;2.40;91.83;97050.23;435225;1265;99222;-41
2023/03/09 19:32:54;;;;;;;159.60;81.70;;;;;;;2.46;91.83;97049.81;435122;1256;112032;-43
2023/03/09 19:43:02;;;;;;;115.30;66.80;;;;;;;2.48;91.56;97051.06;435185;1254;108492;-41
2023/03/09 19:53:09;;;;;;;100.70;55.30;;;;;;;2.52;91.45;97047.33;435081;1257;99687;-40
2023/03/09 20:03:16;;;;;;;91.60;54.10;;;;;;;2.52;91.50;97042.84;435121;1256;112309;-39
2023/03/09 20:13:23;;;;;;;86.40;51.80;;;;;;;2.56;91.70;97048.85;435132;1256;107581;-39
2023/03/09 20:23:30;;;;;;;87.20;50.80;;;;;;;2.66;91.77;97062.80;435196;1256;98803;-40
2023/03/09 20:33:38;;;;;;;83.30;52.30;;;;;;;2.68;91.72;97056.02;435035;1266;107520;-39
2023/03/09 20:43:46;;;;;;;113.30;61.30;;;;;;;2.75;91.93;97054.91;435144;1254;99261;-39
2023/03/09 20:53:54;;;;;;;118.00;59.60;;;;;;;2.66;91.91;97042.65;435083;1254;112055;-40
2023/03/09 21:04:01;;;;;;;87.20;53.70;;;;;;;2.63;92.01;97028.55;435181;1255;108730;-40
2023/03/09 21:14:08;;;;;;;118.70;66.10;;;;;;;2.71;91.99;97030.13;435050;1254;97918;-39
2023/03/09 21:24:16;;;;;;;78.70;50.80;;;;;;;2.89;92.23;97017.11;435135;1254;107642;-40
2023/03/09 21:34:23;;;;;;;100.80;55.40;;;;;;;3.05;92.14;96998.56;434970;1257;99234;-39
2023/03/09 21:44:33;;;;;;;142.10;70.00;;;;;;;3.06;92.17;96999.98;435215;1257;111271;-40
2023/03/09 21:54:41;;;;;;;145.20;76.70;;;;;;;3.01;92.06;96993.77;436653;1267;106874;-40
2023/03/09 22:04:48;;;;;;;91.70;54.40;;;;;;;2.92;91.80;96965.64;439142;1257;98532;-40
2023/03/09 22:25:02;;;;;;;84.10;49.50;;;;;;;2.86;91.88;96936.63;439078;1257;108678;-40
2023/03/09 22:35:11;;;;;;;71.60;40.80;;;;;;;2.95;92.23;96927.96;437951;1258;99324;-40
2023/03/09 22:45:17;;;;;;;58.30;37.30;;;;;;;3.03;92.41;96911.83;438198;1258;107320;-40
2023/03/09 22:55:24;;;;;;;50.80;30.10;;;;;;;3.10;92.69;96900.50;435117;1253;99113;-39
2023/03/09 23:05:31;;;;;;;60.80;38.40;;;;;;;3.14;92.89;96896.39;435272;1256;111443;-40
2023/03/09 23:15:38;;;;;;;63.00;35.70;;;;;;;3.17;93.04;96890.87;435160;1257;107785;-40
2023/03/09 23:25:46;;;;;;;61.10;37.60;;;;;;;3.15;93.24;96873.46;435037;1254;98273;-40
2023/03/09 23:35:53;;;;;;;69.90;39.50;;;;;;;3.15;93.50;96838.42;435169;1256;107929;-40
2023/03/09 23:46:01;;;;;;;83.80;46.80;;;;;;;3.14;93.49;96823.95;436097;1254;99221;-40
2023/03/09 23:56:12;;;;;;;74.30;42.30;;;;;;;3.18;93.86;96821.42;435770;1257;112078;-39
